Time;durP1;ratioP1;P1;durP2;ratioP2;P2;SDS_P1;SDS_P2;PMS_P1;PMS_P2;Temp;Humidity;BMP_temperature;BMP_pressure;BME280_temperature;BME280_humidity;BME280_pressure;Samples;Min_cycle;Max_cycle;Signal;HPM_P1;HPM_P2
2023/07/21 00:01:17;;;;;;;3.60;1.80;;;;;;;;;;108273;1272;41036;-35
2023/07/21 00:03:52;;;;;;;3.90;1.50;;;;;;;;;;108313;1271;38841;-35
2023/07/21 00:06:27;;;;;;;3.00;1.50;;;;;;;;;;108172;1257;40311;-35
2023/07/21 00:09:06;;;;;;;3.40;1.50;;;;;;;;;;108246;1260;42142;-35
2023/07/21 00:11:40;;;;;;;3.60;1.50;;;;;;;;;;108231;1261;41767;-35
2023/07/21 00:14:17;;;;;;;4.00;1.50;;;;;;;;;;108225;1260;38848;-35
2023/07/21 00:16:53;;;;;;;3.30;1.50;;;;;;;;;;108203;1271;40187;-35
2023/07/21 00:19:28;;;;;;;4.60;1.60;;;;;;;;;;108284;1270;42346;-35
2023/07/21 00:22:02;;;;;;;3.20;1.50;;;;;;;;;;108264;1270;41112;-35
2023/07/21 00:24:37;;;;;;;4.10;1.80;;;;;;;;;;108343;1272;38683;-35
2023/07/21 00:27:12;;;;;;;4.50;1.70;;;;;;;;;;108187;1260;41477;-35
2023/07/21 00:29:48;;;;;;;3.50;1.50;;;;;;;;;;108234;1272;42286;-35
2023/07/21 00:32:22;;;;;;;5.60;2.10;;;;;;;;;;108225;1269;42570;-35
2023/07/21 00:34:57;;;;;;;3.60;1.70;;;;;;;;;;108239;1260;38783;-35
2023/07/21 00:37:31;;;;;;;3.80;1.70;;;;;;;;;;108232;1260;40399;-35
2023/07/21 00:40:09;;;;;;;3.80;1.60;;;;;;;;;;108263;1258;43185;-35
2023/07/21 00:42:44;;;;;;;3.60;1.60;;;;;;;;;;108337;1264;42335;-35
2023/07/21 00:45:23;;;;;;;3.30;1.60;;;;;;;;;;108362;1266;40049;-35
2023/07/21 00:47:58;;;;;;;3.80;1.60;;;;;;;;;;108331;1261;45383;-35
2023/07/21 00:50:33;;;;;;;4.00;1.80;;;;;;;;;;108096;1261;175474;-35
2023/07/21 00:53:07;;;;;;;4.20;1.60;;;;;;;;;;108236;1261;42986;-35
2023/07/21 00:55:42;;;;;;;4.30;1.80;;;;;;;;;;108285;1260;40356;-35
2023/07/21 00:58:16;;;;;;;3.90;1.80;;;;;;;;;;108252;1260;46058;-35
2023/07/21 01:00:50;;;;;;;3.80;1.80;;;;;;;;;;108325;1270;43333;-35
2023/07/21 01:03:25;;;;;;;3.20;1.40;;;;;;;;;;108306;1269;41478;-35
2023/07/21 01:06:02;;;;;;;3.80;1.60;;;;;;;;;;108306;1257;38991;-35
2023/07/21 01:08:37;;;;;;;4.10;1.70;;;;;;;;;;108239;1259;45770;-35
2023/07/21 01:11:11;;;;;;;4.00;1.80;;;;;;;;;;108285;1267;42059;-35
2023/07/21 01:13:45;;;;;;;3.10;1.60;;;;;;;;;;108270;1267;41366;-35
2023/07/21 01:16:20;;;;;;;3.40;1.60;;;;;;;;;;108278;1268;38912;-35
2023/07/21 01:18:55;;;;;;;3.60;1.60;;;;;;;;;;108151;1260;45554;-35
2023/07/21 01:21:40;;;;;;;3.50;1.60;;;;;;;;;;108169;1269;42243;-35
2023/07/21 01:24:28;;;;;;;3.90;1.80;;;;;;;;;;108176;1268;41383;-35
2023/07/21 01:27:05;;;;;;;3.60;1.70;;;;;;;;;;108129;1257;40139;-35
2023/07/21 01:29:43;;;;;;;3.50;1.60;;;;;;;;;;108225;1267;41367;-35
2023/07/21 01:32:21;;;;;;;4.00;1.60;;;;;;;;;;108268;1270;42021;-35
2023/07/21 01:34:57;;;;;;;4.10;1.80;;;;;;;;;;108271;1267;40908;-35
2023/07/21 01:37:32;;;;;;;3.20;1.50;;;;;;;;;;108214;1257;38939;-35
2023/07/21 01:40:13;;;;;;;3.80;1.60;;;;;;;;;;108184;1270;40160;-35
2023/07/21 01:42:50;;;;;;;3.60;1.70;;;;;;;;;;108229;1261;43255;-35
2023/07/21 01:45:25;;;;;;;3.60;1.80;;;;;;;;;;108164;1270;41013;-35
2023/07/21 01:48:01;;;;;;;3.70;1.80;;;;;;;;;;108148;1256;38853;-35
2023/07/21 01:50:37;;;;;;;3.50;1.80;;;;;;;;;;108163;1270;41427;-35
2023/07/21 01:53:18;;;;;;;4.20;1.90;;;;;;;;;;108213;1256;42261;-36
2023/07/21 01:56:07;;;;;;;3.80;1.90;;;;;;;;;;108186;1260;42381;-36
2023/07/21 01:58:44;;;;;;;3.60;1.90;;;;;;;;;;108223;1260;39070;-35
2023/07/21 02:01:20;;;;;;;4.10;1.90;;;;;;;;;;108289;1265;40311;-35
2023/07/21 02:03:55;;;;;;;5.50;2.00;;;;;;;;;;108314;1264;41947;-35
2023/07/21 02:06:29;;;;;;;4.20;2.00;;;;;;;;;;108252;1273;41271;-35
2023/07/21 02:09:04;;;;;;;4.20;1.90;;;;;;;;;;108203;1260;38774;-35
2023/07/21 02:11:38;;;;;;;4.50;2.10;;;;;;;;;;108173;1263;41390;-35
2023/07/21 02:14:12;;;;;;;3.70;2.00;;;;;;;;;;108181;1268;42134;-35
2023/07/21 02:16:49;;;;;;;4.30;2.00;;;;;;;;;;108220;1261;42582;-35
2023/07/21 02:19:23;;;;;;;3.80;2.00;;;;;;;;;;108222;1270;38841;-35
2023/07/21 02:21:58;;;;;;;4.30;2.00;;;;;;;;;;108274;1272;39885;-35
2023/07/21 02:24:32;;;;;;;4.40;2.10;;;;;;;;;;108249;1257;44319;-35
2023/07/21 02:27:09;;;;;;;4.20;1.80;;;;;;;;;;108286;1263;41195;-35
2023/07/21 02:29:43;;;;;;;4.70;1.90;;;;;;;;;;108185;1260;38989;-35
2023/07/21 02:32:17;;;;;;;4.00;2.10;;;;;;;;;;108192;1272;40324;-35
2023/07/21 02:34:52;;;;;;;5.20;2.30;;;;;;;;;;108175;1268;42197;-35
2023/07/21 02:37:27;;;;;;;4.70;2.20;;;;;;;;;;108163;1268;41093;-35
2023/07/21 02:40:06;;;;;;;3.90;2.00;;;;;;;;;;108263;1260;38933;-35
2023/07/21 02:42:40;;;;;;;4.10;2.10;;;;;;;;;;108272;1261;40371;-35
2023/07/21 02:45:15;;;;;;;5.20;2.20;;;;;;;;;;108286;1269;42247;-35
2023/07/21 02:47:49;;;;;;;4.70;2.10;;;;;;;;;;108308;1273;41032;-35
2023/07/21 02:50:27;;;;;;;3.80;1.80;;;;;;;;;;108178;1261;39218;-35
2023/07/21 02:53:01;;;;;;;3.30;1.80;;;;;;;;;;107477;1270;893152;-35
2023/07/21 02:55:36;;;;;;;3.70;1.90;;;;;;;;;;108247;1260;43309;-35
2023/07/21 02:58:13;;;;;;;4.10;1.80;;;;;;;;;;108226;1257;41070;-35
2023/07/21 03:00:47;;;;;;;3.50;1.70;;;;;;;;;;108257;1260;39165;-35
2023/07/21 03:03:24;;;;;;;3.40;1.40;;;;;;;;;;108296;1260;40131;-35
2023/07/21 03:05:58;;;;;;;3.50;1.70;;;;;;;;;;108281;1269;42146;-35
2023/07/21 03:08:33;;;;;;;3.60;1.80;;;;;;;;;;108197;1257;41220;-35
2023/07/21 03:11:11;;;;;;;3.80;1.70;;;;;;;;;;108106;1260;44565;-35
2023/07/21 03:13:45;;;;;;;3.40;1.80;;;;;;;;;;108145;1270;40226;-35
2023/07/21 03:16:20;;;;;;;3.40;1.80;;;;;;;;;;108147;1268;42107;-35
2023/07/21 03:18:55;;;;;;;3.30;1.80;;;;;;;;;;108159;1272;40947;-35
2023/07/21 03:21:29;;;;;;;3.80;1.80;;;;;;;;;;108250;1260;45189;-35
2023/07/21 03:24:07;;;;;;;3.50;1.90;;;;;;;;;;108337;1269;41474;-35
2023/07/21 03:26:41;;;;;;;3.80;1.90;;;;;;;;;;108299;1260;41750;-35
2023/07/21 03:29:16;;;;;;;3.30;1.70;;;;;;;;;;108285;1260;42262;-35
2023/07/21 03:31:50;;;;;;;4.00;1.80;;;;;;;;;;108158;1259;45893;-35
2023/07/21 03:34:24;;;;;;;3.30;1.70;;;;;;;;;;108059;1256;175518;-35
2023/07/21 03:36:59;;;;;;;3.40;1.80;;;;;;;;;;108202;1266;42247;-35
2023/07/21 03:39:36;;;;;;;3.20;1.70;;;;;;;;;;108158;1270;41143;-35
2023/07/21 03:42:10;;;;;;;3.30;1.80;;;;;;;;;;108232;1261;46582;-35
2023/07/21 03:44:49;;;;;;;3.70;1.80;;;;;;;;;;108314;1264;41265;-35
2023/07/21 03:47:24;;;;;;;3.80;1.80;;;;;;;;;;108313;1269;42537;-35
2023/07/21 03:49:59;;;;;;;3.00;1.50;;;;;;;;;;108269;1264;41125;-35
2023/07/21 03:52:33;;;;;;;3.60;1.80;;;;;;;;;;108218;1258;38734;-35
2023/07/21 03:55:09;;;;;;;3.90;1.90;;;;;;;;;;108196;1270;40328;-35
2023/07/21 03:57:43;;;;;;;3.50;2.00;;;;;;;;;;108190;1268;42066;-35
2023/07/21 04:00:20;;;;;;;3.70;1.60;;;;;;;;;;108150;1260;41313;-35
2023/07/21 04:02:54;;;;;;;4.20;1.90;;;;;;;;;;108287;1259;46112;-35
2023/07/21 04:05:29;;;;;;;3.70;2.20;;;;;;;;;;108276;1269;40688;-35
2023/07/21 04:08:07;;;;;;;4.00;2.10;;;;;;;;;;108238;1264;43539;-35
2023/07/21 04:10:44;;;;;;;3.60;2.10;;;;;;;;;;108242;1257;41112;-35
2023/07/21 04:13:18;;;;;;;4.10;2.00;;;;;;;;;;108242;1260;47406;-35
2023/07/21 04:15:54;;;;;;;3.80;1.90;;;;;;;;;;108201;1270;40173;-35
2023/07/21 04:18:29;;;;;;;4.10;2.10;;;;;;;;;;108183;1260;42300;-35
2023/07/21 04:21:02;;;;;;;3.70;2.20;;;;;;;;;;108141;1264;42417;-35
2023/07/21 04:23:37;;;;;;;3.70;2.20;;;;;;;;;;108277;1269;45762;-35
2023/07/21 04:26:14;;;;;;;4.50;1.90;;;;;;;;;;108241;1257;41547;-35
2023/07/21 04:28:49;;;;;;;4.00;1.90;;;;;;;;;;108266;1256;43306;-35
2023/07/21 04:31:28;;;;;;;3.20;1.80;;;;;;;;;;108223;1269;41098;-35
2023/07/21 04:34:02;;;;;;;3.80;2.10;;;;;;;;;;108097;1257;175534;-35
2023/07/21 04:36:38;;;;;;;3.60;2.00;;;;;;;;;;108162;1260;41384;-35
2023/07/21 04:39:12;;;;;;;3.40;2.00;;;;;;;;;;108088;1265;175570;-35
2023/07/21 04:41:46;;;;;;;4.20;2.10;;;;;;;;;;108144;1259;41235;-35
2023/07/21 04:44:24;;;;;;;3.50;1.90;;;;;;;;;;108273;1269;46252;-35
2023/07/21 04:46:59;;;;;;;3.80;1.90;;;;;;;;;;108276;1260;40342;-35
2023/07/21 04:49:33;;;;;;;3.30;1.80;;;;;;;;;;108298;1261;42468;-35
2023/07/21 04:52:08;;;;;;;3.50;1.70;;;;;;;;;;108213;1271;41331;-35
2023/07/21 04:54:44;;;;;;;3.80;1.70;;;;;;;;;;108138;1261;46200;-35
2023/07/21 04:57:18;;;;;;;3.70;1.70;;;;;;;;;;108238;1272;40305;-35
2023/07/21 04:59:53;;;;;;;3.50;2.00;;;;;;;;;;108183;1261;42041;-35
2023/07/21 05:02:28;;;;;;;3.50;1.90;;;;;;;;;;108192;1270;41248;-35
2023/07/21 05:05:03;;;;;;;3.20;1.90;;;;;;;;;;108297;1272;44855;-35
2023/07/21 05:07:37;;;;;;;3.70;2.10;;;;;;;;;;108335;1272;40257;-35
2023/07/21 05:10:17;;;;;;;3.30;1.70;;;;;;;;;;108265;1269;42297;-35
2023/07/21 05:12:51;;;;;;;3.40;2.00;;;;;;;;;;108273;1256;40986;-35
2023/07/21 05:15:25;;;;;;;3.40;1.80;;;;;;;;;;108194;1272;38711;-35
2023/07/21 05:17:59;;;;;;;3.30;1.70;;;;;;;;;;108190;1260;40336;-35
2023/07/21 05:20:34;;;;;;;3.60;2.00;;;;;;;;;;108245;1269;43563;-35
2023/07/21 05:23:09;;;;;;;3.60;1.90;;;;;;;;;;108160;1257;41282;-35
2023/07/21 05:25:43;;;;;;;4.00;2.00;;;;;;;;;;108259;1272;39098;-35
2023/07/21 05:28:17;;;;;;;4.30;2.20;;;;;;;;;;108310;1260;40172;-35
2023/07/21 05:30:52;;;;;;;3.00;1.80;;;;;;;;;;108293;1260;42237;-35
2023/07/21 05:33:29;;;;;;;3.50;1.90;;;;;;;;;;108240;1257;41123;-35
2023/07/21 05:36:10;;;;;;;3.90;2.00;;;;;;;;;;108198;1270;39451;-35
2023/07/21 05:38:44;;;;;;;3.40;1.80;;;;;;;;;;108214;1268;40171;-35
2023/07/21 05:41:18;;;;;;;3.90;1.80;;;;;;;;;;108224;1272;42072;-35
2023/07/21 05:43:53;;;;;;;3.60;1.70;;;;;;;;;;108038;1259;41282;-35
2023/07/21 05:46:27;;;;;;;3.40;1.60;;;;;;;;;;108271;1269;38803;-35
2023/07/21 05:49:02;;;;;;;3.70;1.90;;;;;;;;;;108267;1260;40126;-35
2023/07/21 05:51:37;;;;;;;3.20;1.80;;;;;;;;;;108264;1262;42231;-35
2023/07/21 05:54:12;;;;;;;3.60;1.70;;;;;;;;;;108251;1256;41289;-35
2023/07/21 05:56:46;;;;;;;3.60;1.90;;;;;;;;;;108319;1267;38935;-36
2023/07/21 05:59:20;;;;;;;3.30;1.80;;;;;;;;;;108207;1261;39899;-36
2023/07/21 06:01:58;;;;;;;3.80;1.80;;;;;;;;;;108203;1259;42268;-35
2023/07/21 06:04:31;;;;;;;3.50;1.70;;;;;;;;;;108210;1257;40993;-35
2023/07/21 06:07:05;;;;;;;3.50;1.80;;;;;;;;;;108278;1257;40027;-35
2023/07/21 06:09:40;;;;;;;4.30;1.90;;;;;;;;;;108273;1269;40126;-36
2023/07/21 06:12:14;;;;;;;3.60;1.60;;;;;;;;;;108277;1269;42101;-35
2023/07/21 06:14:48;;;;;;;4.20;1.80;;;;;;;;;;108194;1269;41199;-35
2023/07/21 06:17:22;;;;;;;5.40;2.50;;;;;;;;;;108192;1270;39001;-36
2023/07/21 06:19:57;;;;;;;3.60;1.90;;;;;;;;;;108208;1271;41480;-36
2023/07/21 06:22:32;;;;;;;4.00;2.00;;;;;;;;;;108222;1271;42405;-35
2023/07/21 06:25:09;;;;;;;3.50;2.00;;;;;;;;;;108206;1260;41495;-35
2023/07/21 06:27:46;;;;;;;3.80;2.10;;;;;;;;;;108252;1270;39870;-35
2023/07/21 06:30:21;;;;;;;3.70;2.00;;;;;;;;;;108223;1269;40365;-36
2023/07/21 06:32:55;;;;;;;3.80;1.90;;;;;;;;;;108258;1268;42032;-35
2023/07/21 06:35:31;;;;;;;4.20;2.30;;;;;;;;;;108166;1256;41227;-35
2023/07/21 06:38:05;;;;;;;3.50;2.00;;;;;;;;;;108167;1261;38825;-36
2023/07/21 06:40:40;;;;;;;4.00;2.00;;;;;;;;;;108096;1256;175493;-36
2023/07/21 06:43:15;;;;;;;4.20;2.00;;;;;;;;;;108219;1261;41982;-35
2023/07/21 06:45:49;;;;;;;4.20;2.20;;;;;;;;;;108189;1260;41172;-35
2023/07/21 06:48:23;;;;;;;4.80;2.10;;;;;;;;;;108261;1268;39044;-35
2023/07/21 06:50:57;;;;;;;4.70;2.20;;;;;;;;;;108189;1257;40677;-35
2023/07/21 06:53:31;;;;;;;6.50;2.40;;;;;;;;;;108298;1258;43278;-36
2023/07/21 06:56:04;;;;;;;4.10;2.00;;;;;;;;;;108261;1262;40828;-36
2023/07/21 06:58:38;;;;;;;4.70;2.30;;;;;;;;;;108285;1271;38942;-35
2023/07/21 07:01:11;;;;;;;4.30;2.10;;;;;;;;;;108302;1260;40554;-35
2023/07/21 07:03:44;;;;;;;4.70;1.80;;;;;;;;;;108260;1268;42227;-35
2023/07/21 07:06:21;;;;;;;3.70;2.10;;;;;;;;;;108067;1260;42485;-35
2023/07/21 07:08:54;;;;;;;5.50;2.10;;;;;;;;;;108200;1269;39047;-35
2023/07/21 07:11:28;;;;;;;4.00;2.10;;;;;;;;;;108220;1269;40171;-35
2023/07/21 07:14:01;;;;;;;4.50;2.00;;;;;;;;;;108290;1257;42054;-35
2023/07/21 07:16:35;;;;;;;4.20;2.10;;;;;;;;;;108231;1258;42179;-36
2023/07/21 07:19:09;;;;;;;3.50;1.80;;;;;;;;;;108210;1258;38835;-36
2023/07/21 07:21:44;;;;;;;4.50;1.90;;;;;;;;;;108192;1259;40352;-35
2023/07/21 07:24:19;;;;;;;3.70;1.70;;;;;;;;;;108246;1264;42111;-36
2023/07/21 07:26:54;;;;;;;4.00;1.90;;;;;;;;;;108214;1260;42805;-37
2023/07/21 07:29:27;;;;;;;3.80;1.90;;;;;;;;;;108272;1269;38871;-36
2023/07/21 07:32:01;;;;;;;3.70;1.70;;;;;;;;;;108278;1268;40483;-37
2023/07/21 07:34:36;;;;;;;3.80;1.60;;;;;;;;;;108260;1260;42070;-36
2023/07/21 07:37:11;;;;;;;3.50;1.50;;;;;;;;;;108182;1260;41343;-37
2023/07/21 07:39:44;;;;;;;4.40;1.90;;;;;;;;;;108212;1271;38850;-33
2023/07/21 07:42:17;;;;;;;3.20;1.50;;;;;;;;;;108233;1261;40266;-34
2023/07/21 07:44:54;;;;;;;3.90;1.80;;;;;;;;;;108233;1257;42008;-34
2023/07/21 07:47:29;;;;;;;3.60;1.80;;;;;;;;;;108211;1256;42125;-35
2023/07/21 07:50:04;;;;;;;3.00;1.60;;;;;;;;;;108288;1270;38834;-34
2023/07/21 07:52:40;;;;;;;3.40;1.60;;;;;;;;;;108255;1269;41554;-36
2023/07/21 07:55:15;;;;;;;3.10;1.50;;;;;;;;;;108285;1261;41898;-35
2023/07/21 07:57:49;;;;;;;4.20;1.70;;;;;;;;;;108199;1261;41290;-35
2023/07/21 08:00:24;;;;;;;3.00;1.70;;;;;;;;;;108205;1272;38860;-36
2023/07/21 08:03:01;;;;;;;3.30;1.60;;;;;;;;;;108207;1268;41004;-34
2023/07/21 08:05:36;;;;;;;3.30;1.60;;;;;;;;;;108219;1272;41883;-37
2023/07/21 08:08:12;;;;;;;3.40;1.70;;;;;;;;;;108232;1260;41405;-37
2023/07/21 08:10:47;;;;;;;3.30;1.70;;;;;;;;;;108287;1260;38971;-36
2023/07/21 08:13:22;;;;;;;2.80;1.60;;;;;;;;;;108285;1273;40414;-35
2023/07/21 08:15:56;;;;;;;3.10;1.50;;;;;;;;;;108269;1263;42082;-35
2023/07/21 08:18:30;;;;;;;2.80;1.70;;;;;;;;;;108176;1257;41256;-35
2023/07/21 08:21:21;;;;;;;2.80;1.60;;;;;;;;;;108256;1270;39276;-36
2023/07/21 08:23:55;;;;;;;3.60;1.60;;;;;;;;;;108245;1260;40032;-36
2023/07/21 08:26:30;;;;;;;3.50;1.50;;;;;;;;;;108220;1257;42030;-36
2023/07/21 08:29:07;;;;;;;2.80;1.50;;;;;;;;;;108242;1269;48526;-36
2023/07/21 08:31:41;;;;;;;2.80;1.50;;;;;;;;;;108263;1266;39040;-36
2023/07/21 08:34:15;;;;;;;3.10;1.50;;;;;;;;;;107592;1272;895223;-36
2023/07/21 08:36:49;;;;;;;12.30;8.30;;;;;;;;;;108211;1268;42083;-36
2023/07/21 08:39:29;;;;;;;6.80;4.80;;;;;;;;;;108175;1270;47316;-39
2023/07/21 08:42:05;;;;;;;6.90;5.30;;;;;;;;;;108124;1270;39046;-40
2023/07/21 08:44:39;;;;;;;8.50;6.90;;;;;;;;;;108192;1260;42464;-39
2023/07/21 08:47:12;;;;;;;10.10;8.40;;;;;;;;;;108116;1268;42435;-39
2023/07/21 08:49:46;;;;;;;8.60;7.40;;;;;;;;;;108218;1269;49776;-39
2023/07/21 08:52:19;;;;;;;8.70;7.00;;;;;;;;;;107573;1260;893784;-39
2023/07/21 08:54:53;;;;;;;8.40;6.10;;;;;;;;;;108225;1257;41595;-38
2023/07/21 08:57:26;;;;;;;8.50;6.80;;;;;;;;;;108177;1272;42293;-40
2023/07/21 09:00:00;;;;;;;8.60;6.50;;;;;;;;;;108091;1268;47389;-38
2023/07/21 09:02:48;;;;;;;7.80;5.90;;;;;;;;;;108153;1271;38970;-38
2023/07/21 09:05:22;;;;;;;5.70;4.30;;;;;;;;;;108177;1269;40404;-37
2023/07/21 09:07:56;;;;;;;5.30;3.40;;;;;;;;;;108175;1257;41838;-42
2023/07/21 09:10:35;;;;;;;5.30;3.70;;;;;;;;;;108273;1257;42734;-42
2023/07/21 09:13:19;;;;;;;5.40;3.20;;;;;;;;;;108290;1263;38969;-40
2023/07/21 09:15:57;;;;;;;5.20;3.20;;;;;;;;;;108318;1261;40229;-40
2023/07/21 09:18:34;;;;;;;5.10;3.00;;;;;;;;;;108250;1258;42237;-40
2023/07/21 09:21:08;;;;;;;4.70;2.50;;;;;;;;;;108196;1265;42516;-42
2023/07/21 09:23:41;;;;;;;4.80;2.50;;;;;;;;;;108282;1259;38956;-42
2023/07/21 09:26:14;;;;;;;4.20;2.60;;;;;;;;;;108206;1257;41349;-41
2023/07/21 09:28:48;;;;;;;4.90;2.50;;;;;;;;;;108194;1257;42301;-42
2023/07/21 09:31:31;;;;;;;6.10;3.90;;;;;;;;;;108224;1269;42030;-43
2023/07/21 09:34:12;;;;;;;5.40;3.50;;;;;;;;;;108260;1257;40284;-43
2023/07/21 09:36:48;;;;;;;4.90;3.10;;;;;;;;;;108243;1269;41840;-44
2023/07/21 09:39:22;;;;;;;4.80;3.00;;;;;;;;;;108216;1268;43698;-43
2023/07/21 09:41:55;;;;;;;5.20;2.90;;;;;;;;;;108257;1256;41713;-43
2023/07/21 09:44:29;;;;;;;5.00;2.40;;;;;;;;;;108235;1269;41130;-45
2023/07/21 09:47:04;;;;;;;3.70;2.00;;;;;;;;;;108248;1264;40262;-47
2023/07/21 09:49:39;;;;;;;4.40;2.30;;;;;;;;;;108211;1257;42307;-39
2023/07/21 09:52:16;;;;;;;4.10;2.10;;;;;;;;;;108274;1270;41591;-40
2023/07/21 09:54:57;;;;;;;3.90;2.10;;;;;;;;;;108230;1272;39327;-41
2023/07/21 09:57:35;;;;;;;3.80;2.10;;;;;;;;;;108166;1262;40146;-43
2023/07/21 10:00:15;;;;;;;3.80;1.70;;;;;;;;;;108143;1260;42551;-43
2023/07/21 10:02:51;;;;;;;3.80;1.70;;;;;;;;;;108226;1261;41168;-42
2023/07/21 10:05:25;;;;;;;3.90;1.60;;;;;;;;;;108205;1268;38957;-39
2023/07/21 10:08:02;;;;;;;5.00;1.80;;;;;;;;;;108274;1268;41458;-41
2023/07/21 10:10:36;;;;;;;3.40;1.60;;;;;;;;;;108086;1262;175545;-41
2023/07/21 10:13:10;;;;;;;3.50;1.50;;;;;;;;;;108331;1265;41133;-41
2023/07/21 10:15:48;;;;;;;3.00;1.40;;;;;;;;;;108206;1273;38692;-40
2023/07/21 10:18:22;;;;;;;3.00;1.50;;;;;;;;;;108227;1270;41343;-45
2023/07/21 10:20:58;;;;;;;3.30;1.50;;;;;;;;;;107996;1264;42168;-40
2023/07/21 10:23:39;;;;;;;3.50;1.60;;;;;;;;;;108239;1269;41341;-43
2023/07/21 10:26:14;;;;;;;3.90;1.80;;;;;;;;;;108268;1257;38837;-38
2023/07/21 10:28:51;;;;;;;3.20;1.60;;;;;;;;;;108244;1264;40357;-38
2023/07/21 10:31:38;;;;;;;4.10;1.40;;;;;;;;;;108223;1271;42367;-41
2023/07/21 10:34:16;;;;;;;3.20;1.50;;;;;;;;;;108240;1268;41312;-40
2023/07/21 10:37:02;;;;;;;3.00;1.20;;;;;;;;;;108278;1269;39002;-41
2023/07/21 10:39:42;;;;;;;3.50;1.40;;;;;;;;;;108229;1256;40327;-40
2023/07/21 10:42:16;;;;;;;4.00;1.40;;;;;;;;;;108247;1272;42203;-38
2023/07/21 10:44:51;;;;;;;2.70;1.30;;;;;;;;;;108114;1260;194301;-42
2023/07/21 10:47:26;;;;;;;2.80;1.30;;;;;;;;;;108212;1268;39029;-40
2023/07/21 10:49:59;;;;;;;2.90;1.40;;;;;;;;;;108088;1257;41558;-40
2023/07/21 10:52:33;;;;;;;3.60;1.20;;;;;;;;;;108242;1258;42104;-42
2023/07/21 10:55:09;;;;;;;2.70;1.10;;;;;;;;;;108285;1269;42542;-40
2023/07/21 10:57:43;;;;;;;2.80;1.20;;;;;;;;;;108295;1272;38988;-39
2023/07/21 11:00:18;;;;;;;2.40;1.10;;;;;;;;;;108245;1258;40490;-38
2023/07/21 11:02:57;;;;;;;3.60;1.40;;;;;;;;;;108302;1268;43724;-39
2023/07/21 11:05:39;;;;;;;2.70;1.20;;;;;;;;;;108228;1270;42015;-39
2023/07/21 11:08:27;;;;;;;2.90;1.20;;;;;;;;;;108257;1260;39231;-40
2023/07/21 11:11:02;;;;;;;3.50;1.20;;;;;;;;;;108161;1260;175501;-40
2023/07/21 11:13:35;;;;;;;2.80;1.20;;;;;;;;;;108260;1272;41772;-39
2023/07/21 11:16:11;;;;;;;3.20;1.30;;;;;;;;;;108250;1263;41052;-40
2023/07/21 11:18:46;;;;;;;2.20;1.00;;;;;;;;;;108133;1272;175149;-41
2023/07/21 11:21:19;;;;;;;2.90;1.30;;;;;;;;;;108216;1258;40599;-41
2023/07/21 11:24:03;;;;;;;2.80;1.30;;;;;;;;;;108279;1266;42171;-40
2023/07/21 11:26:38;;;;;;;3.00;1.20;;;;;;;;;;108188;1270;41212;-40
2023/07/21 11:29:12;;;;;;;3.00;1.20;;;;;;;;;;108221;1272;38803;-41
2023/07/21 11:31:46;;;;;;;3.00;1.20;;;;;;;;;;108206;1262;40236;-41
2023/07/21 11:34:24;;;;;;;3.90;1.30;;;;;;;;;;108286;1271;42614;-41
2023/07/21 11:37:00;;;;;;;2.90;1.10;;;;;;;;;;108231;1268;41336;-45
2023/07/21 11:39:34;;;;;;;2.80;1.20;;;;;;;;;;108263;1257;38953;-38
2023/07/21 11:42:10;;;;;;;2.70;1.20;;;;;;;;;;108190;1262;41722;-39
2023/07/21 11:44:44;;;;;;;2.40;1.20;;;;;;;;;;108258;1256;42693;-35
2023/07/21 11:47:20;;;;;;;2.60;1.20;;;;;;;;;;108278;1262;41599;-35
2023/07/21 11:49:57;;;;;;;3.50;1.30;;;;;;;;;;108141;1268;116616;-36
2023/07/21 11:52:33;;;;;;;3.30;1.40;;;;;;;;;;108224;1262;40181;-35
2023/07/21 11:55:09;;;;;;;2.90;1.30;;;;;;;;;;108208;1273;41956;-35
2023/07/21 11:57:44;;;;;;;2.70;1.40;;;;;;;;;;108263;1273;42231;-35
2023/07/21 12:00:19;;;;;;;2.70;1.20;;;;;;;;;;108291;1260;39220;-35
2023/07/21 12:02:54;;;;;;;3.40;1.30;;;;;;;;;;108247;1256;41419;-35
2023/07/21 12:05:28;;;;;;;2.60;1.10;;;;;;;;;;108198;1263;44623;-35
2023/07/21 12:08:06;;;;;;;3.80;1.30;;;;;;;;;;108263;1271;42276;-36
2023/07/21 12:10:40;;;;;;;3.80;1.80;;;;;;;;;;108215;1261;38960;-36
2023/07/21 12:13:14;;;;;;;3.80;1.80;;;;;;;;;;108214;1260;40421;-36
2023/07/21 12:15:47;;;;;;;4.50;1.40;;;;;;;;;;108275;1257;43477;-36
2023/07/21 12:18:22;;;;;;;2.90;1.30;;;;;;;;;;108244;1257;42427;-36
2023/07/21 12:20:56;;;;;;;3.30;1.30;;;;;;;;;;108276;1262;38660;-36
2023/07/21 12:23:29;;;;;;;3.40;1.40;;;;;;;;;;108237;1260;41452;-35
2023/07/21 12:26:03;;;;;;;3.00;1.20;;;;;;;;;;108264;1260;42052;-35
2023/07/21 12:28:37;;;;;;;2.90;1.20;;;;;;;;;;108119;1262;175536;-35
2023/07/21 12:31:12;;;;;;;3.70;1.10;;;;;;;;;;108265;1262;39142;-35
2023/07/21 12:33:45;;;;;;;3.30;1.20;;;;;;;;;;108109;1262;175165;-36
2023/07/21 12:36:20;;;;;;;3.40;1.30;;;;;;;;;;108261;1270;42150;-36
2023/07/21 12:38:54;;;;;;;2.80;1.20;;;;;;;;;;108256;1264;41467;-36
2023/07/21 12:41:30;;;;;;;3.10;1.20;;;;;;;;;;108257;1266;38762;-36
2023/07/21 12:44:05;;;;;;;3.20;1.20;;;;;;;;;;108205;1261;40161;-36
2023/07/21 12:46:39;;;;;;;3.40;1.20;;;;;;;;;;108196;1270;42583;-36
2023/07/21 12:49:14;;;;;;;3.00;1.10;;;;;;;;;;108291;1272;41297;-36
2023/07/21 12:51:50;;;;;;;3.50;1.10;;;;;;;;;;108243;1272;40040;-36
2023/07/21 12:54:24;;;;;;;3.30;1.20;;;;;;;;;;108240;1260;40284;-36
2023/07/21 12:56:58;;;;;;;2.50;1.10;;;;;;;;;;108223;1272;42018;-39
2023/07/21 12:59:33;;;;;;;2.80;1.10;;;;;;;;;;108268;1262;42077;-39
2023/07/21 13:02:07;;;;;;;2.90;1.20;;;;;;;;;;108257;1267;39829;-38
2023/07/21 13:04:42;;;;;;;3.80;1.30;;;;;;;;;;108179;1261;47158;-40
2023/07/21 13:07:16;;;;;;;3.10;1.10;;;;;;;;;;108265;1271;42135;-38
2023/07/21 13:09:50;;;;;;;2.80;1.10;;;;;;;;;;108237;1272;41084;-39
2023/07/21 13:12:25;;;;;;;2.60;1.00;;;;;;;;;;108240;1272;39159;-39
2023/07/21 13:14:59;;;;;;;2.40;1.10;;;;;;;;;;108201;1261;46221;-40
2023/07/21 13:17:37;;;;;;;3.00;1.20;;;;;;;;;;108238;1262;42060;-40
2023/07/21 13:20:14;;;;;;;2.40;1.10;;;;;;;;;;108225;1269;41107;-39
2023/07/21 13:22:47;;;;;;;3.80;1.10;;;;;;;;;;108141;1259;38983;-39
2023/07/21 13:25:21;;;;;;;3.10;1.10;;;;;;;;;;108182;1261;40152;-38
2023/07/21 13:27:55;;;;;;;3.00;1.10;;;;;;;;;;108213;1273;42134;-38
2023/07/21 13:30:30;;;;;;;3.00;1.00;;;;;;;;;;108269;1261;40981;-38
2023/07/21 13:33:03;;;;;;;2.90;1.00;;;;;;;;;;108260;1262;40157;-38
2023/07/21 13:35:37;;;;;;;3.00;1.10;;;;;;;;;;108242;1272;46771;-39
2023/07/21 13:38:11;;;;;;;3.20;1.10;;;;;;;;;;108279;1264;43301;-40
2023/07/21 13:40:45;;;;;;;3.00;1.10;;;;;;;;;;108240;1271;41125;-41
2023/07/21 13:43:19;;;;;;;2.50;1.10;;;;;;;;;;108333;1272;38611;-38
2023/07/21 13:45:53;;;;;;;3.20;1.10;;;;;;;;;;108314;1269;47278;-39
2023/07/21 13:48:27;;;;;;;2.90;1.20;;;;;;;;;;108231;1269;43146;-40
2023/07/21 13:51:03;;;;;;;3.00;1.10;;;;;;;;;;108313;1269;42477;-39
2023/07/21 13:53:39;;;;;;;2.70;1.20;;;;;;;;;;108166;1257;175400;-39
2023/07/21 13:56:13;;;;;;;3.20;1.20;;;;;;;;;;108207;1272;46387;-39
2023/07/21 13:58:48;;;;;;;3.60;1.20;;;;;;;;;;108218;1262;43356;-40
2023/07/21 14:01:23;;;;;;;2.70;1.30;;;;;;;;;;108233;1262;42420;-40
2023/07/21 14:03:57;;;;;;;2.50;1.00;;;;;;;;;;108109;1266;38677;-39
2023/07/21 14:06:31;;;;;;;3.50;1.10;;;;;;;;;;108267;1269;46300;-38
2023/07/21 14:09:07;;;;;;;2.30;1.00;;;;;;;;;;108280;1263;42248;-41
2023/07/21 14:11:41;;;;;;;2.80;1.00;;;;;;;;;;108271;1260;43444;-39
2023/07/21 14:14:15;;;;;;;2.80;1.00;;;;;;;;;;108220;1270;38802;-40
2023/07/21 14:16:49;;;;;;;3.80;1.20;;;;;;;;;;108212;1269;45615;-43
2023/07/21 14:19:26;;;;;;;4.30;1.20;;;;;;;;;;108124;1260;175145;-41
2023/07/21 14:22:00;;;;;;;3.70;1.30;;;;;;;;;;108136;1271;40968;-39
2023/07/21 14:24:34;;;;;;;4.50;1.40;;;;;;;;;;108167;1262;38884;-42
2023/07/21 14:27:10;;;;;;;3.60;1.20;;;;;;;;;;108258;1270;46322;-42
2023/07/21 14:29:44;;;;;;;2.60;1.00;;;;;;;;;;108153;1271;175438;-40
2023/07/21 14:32:19;;;;;;;3.20;1.20;;;;;;;;;;108253;1272;42327;-38
2023/07/21 14:34:53;;;;;;;2.60;1.00;;;;;;;;;;108314;1273;38830;-39
2023/07/21 14:37:27;;;;;;;3.10;1.20;;;;;;;;;;108251;1272;45724;-40
2023/07/21 14:40:01;;;;;;;3.10;1.10;;;;;;;;;;108237;1262;41724;-39
2023/07/21 14:42:35;;;;;;;3.20;1.20;;;;;;;;;;108148;1266;41205;-38
2023/07/21 14:45:12;;;;;;;2.80;1.20;;;;;;;;;;108245;1262;38917;-37
2023/07/21 14:47:46;;;;;;;2.50;1.00;;;;;;;;;;108259;1268;46283;-37
2023/07/21 14:50:21;;;;;;;2.90;1.10;;;;;;;;;;108263;1257;41901;-38
2023/07/21 14:52:55;;;;;;;3.40;1.00;;;;;;;;;;108157;1263;175483;-38
2023/07/21 14:55:29;;;;;;;3.10;1.20;;;;;;;;;;108224;1272;38606;-38
2023/07/21 14:58:03;;;;;;;2.40;1.00;;;;;;;;;;108187;1257;45942;-38
2023/07/21 15:00:38;;;;;;;2.90;1.10;;;;;;;;;;108265;1261;42111;-38
2023/07/21 15:03:12;;;;;;;3.00;1.20;;;;;;;;;;108145;1261;42473;-39
2023/07/21 15:05:46;;;;;;;2.70;1.00;;;;;;;;;;108254;1261;38817;-38
2023/07/21 15:08:21;;;;;;;2.50;1.20;;;;;;;;;;108268;1272;46346;-38
2023/07/21 15:10:56;;;;;;;2.30;1.00;;;;;;;;;;108308;1263;42463;-39
2023/07/21 15:13:30;;;;;;;3.60;1.30;;;;;;;;;;108296;1273;42294;-37
2023/07/21 15:16:04;;;;;;;3.00;1.10;;;;;;;;;;108206;1260;40220;-39